Time;durP1;ratioP1;P1;durP2;ratioP2;P2;SDS_P1;SDS_P2;PMS_P1;PMS_P2;Temp;Humidity;BMP_temperature;BMP_pressure;BME280_temperature;BME280_humidity;BME280_pressure;Samples;Min_cycle;Max_cycle;Signal;HPM_P1;HPM_P2
2020/12/01 00:00:48;;;;;;;23.08;13.30;;;0.20;79.50;;;;;;5046532;28;20043;-83
2020/12/01 00:03:14;;;;;;;19.27;10.90;;;0.30;79.20;;;;;;5046822;28;20557;-84
2020/12/01 00:05:40;;;;;;;17.92;11.85;;;0.30;79.20;;;;;;5038505;28;20476;-79
2020/12/01 00:08:06;;;;;;;18.20;11.85;;;0.20;79.40;;;;;;5041793;28;20036;-80
2020/12/01 00:10:35;;;;;;;19.65;13.40;;;0.10;79.70;;;;;;5050847;28;20055;-79
2020/12/01 00:13:02;;;;;;;22.85;12.95;;;0.00;79.90;;;;;;5034253;28;20036;-79
2020/12/01 00:15:28;;;;;;;18.38;12.10;;;0.00;80.00;;;;;;5044542;28;20029;-79
2020/12/01 00:17:54;;;;;;;20.17;11.85;;;0.10;79.80;;;;;;5038993;28;20028;-74
2020/12/01 00:20:22;;;;;;;18.85;12.27;;;0.10;79.50;;;;;;5050446;28;20044;-74
2020/12/01 00:22:48;;;;;;;26.27;14.05;;;0.30;79.10;;;;;;5033908;28;20510;-75
2020/12/01 00:25:15;;;;;;;21.23;12.50;;;0.50;78.30;;;;;;5050248;28;20035;-74
2020/12/01 00:27:41;;;;;;;15.88;11.27;;;0.80;77.50;;;;;;5042865;28;20030;-75
2020/12/01 00:30:22;;;;;;;20.95;12.23;;;0.90;77.00;;;;;;5030491;28;20045;-75
2020/12/01 00:32:47;;;;;;;21.15;13.13;;;1.00;76.60;;;;;;5047119;28;20471;-73
2020/12/01 00:35:16;;;;;;;17.88;11.77;;;1.10;76.00;;;;;;5036476;28;20029;-73
2020/12/01 00:37:42;;;;;;;18.70;10.52;;;1.20;75.60;;;;;;5042639;28;20473;-73
2020/12/01 00:40:09;;;;;;;18.98;11.82;;;1.20;75.50;;;;;;5041949;28;20047;-73
2020/12/01 00:42:35;;;;;;;16.85;11.82;;;1.30;75.10;;;;;;5035259;28;20550;-72
2020/12/01 00:45:02;;;;;;;18.40;11.43;;;1.30;74.80;;;;;;5047188;28;20033;-73
2020/12/01 00:47:28;;;;;;;18.08;11.40;;;1.30;74.80;;;;;;5035408;28;20036;-73
2020/12/01 00:49:53;;;;;;;17.67;11.70;;;1.40;74.50;;;;;;5041012;28;20025;-73
2020/12/01 00:52:19;;;;;;;18.15;11.55;;;1.40;74.40;;;;;;5044051;28;20029;-73
2020/12/01 00:54:45;;;;;;;17.98;11.43;;;1.40;74.30;;;;;;5034181;28;20512;-73
2020/12/01 00:57:10;;;;;;;18.65;12.00;;;1.40;74.20;;;;;;5047148;28;20059;-73
2020/12/01 00:59:36;;;;;;;19.38;12.13;;;1.40;74.40;;;;;;5037607;28;20017;-73
2020/12/01 01:02:01;;;;;;;17.83;12.15;;;1.50;74.50;;;;;;5039876;28;20033;-73
2020/12/01 01:04:27;;;;;;;21.50;12.93;;;1.50;74.40;;;;;;5043602;28;20028;-73
2020/12/01 01:06:53;;;;;;;22.98;12.80;;;1.50;74.50;;;;;;5047997;28;20029;-73
2020/12/01 01:09:19;;;;;;;21.35;13.50;;;1.40;74.70;;;;;;5047606;28;20025;-73
2020/12/01 01:11:45;;;;;;;19.77;13.15;;;1.50;74.30;;;;;;5045696;28;20480;-73
2020/12/01 01:14:11;;;;;;;24.58;14.20;;;1.50;74.20;;;;;;5045894;28;20035;-73
2020/12/01 01:16:41;;;;;;;20.48;12.65;;;1.50;74.30;;;;;;5038514;28;20017;-73
2020/12/01 01:19:07;;;;;;;21.13;13.43;;;1.50;74.50;;;;;;5053390;28;20407;-73
2020/12/01 01:21:42;;;;;;;29.63;14.60;;;1.50;74.50;;;;;;5046851;28;20136;-73
2020/12/01 01:24:09;;;;;;;24.27;14.20;;;1.60;74.60;;;;;;5045143;28;20025;-73
2020/12/01 01:26:34;;;;;;;20.92;13.98;;;1.60;74.40;;;;;;5051786;28;20501;-73
2020/12/01 01:29:00;;;;;;;21.52;13.10;;;1.60;74.40;;;;;;5051633;28;20110;-73
2020/12/01 01:31:26;;;;;;;21.95;13.88;;;1.60;74.50;;;;;;5039519;28;20032;-73
2020/12/01 01:33:51;;;;;;;25.42;13.95;;;1.50;74.50;;;;;;5053841;28;20029;-73
2020/12/01 01:36:17;;;;;;;22.25;12.32;;;1.60;74.70;;;;;;5040945;28;20028;-73
2020/12/01 01:38:43;;;;;;;19.38;12.82;;;1.70;74.50;;;;;;5048363;28;20021;-73
2020/12/01 01:41:08;;;;;;;28.27;14.50;;;1.60;74.30;;;;;;5043919;28;20044;-73
2020/12/01 01:43:34;;;;;;;27.23;14.88;;;1.60;74.70;;;;;;5046622;28;20072;-73
2020/12/01 01:46:01;;;;;;;21.35;12.85;;;1.70;74.80;;;;;;5043808;28;20024;-73
2020/12/01 01:48:32;;;;;;;21.63;14.07;;;1.80;74.70;;;;;;5052090;28;20079;-73
2020/12/01 01:51:14;;;;;;;21.27;14.10;;;1.80;74.30;;;;;;5036673;28;20479;-73
2020/12/01 01:53:42;;;;;;;;;;;1.80;74.20;;;;;;5046095;28;20060;-74
2020/12/01 01:56:10;;;;;;;21.70;13.45;;;1.70;74.40;;;;;;5043360;28;19909;-73
2020/12/01 01:58:40;;;;;;;22.17;13.18;;;1.80;74.70;;;;;;5053097;28;20082;-72
2020/12/01 02:01:09;;;;;;;22.13;13.13;;;1.80;74.50;;;;;;5036395;28;20476;-73
2020/12/01 02:03:38;;;;;;;21.80;13.20;;;1.80;74.40;;;;;;5046156;28;20452;-72
2020/12/01 02:06:13;;;;;;;22.10;13.95;;;1.80;74.20;;;;;;5043795;28;20100;-72
2020/12/01 02:08:40;;;;;;;19.60;13.15;;;1.70;74.40;;;;;;5043971;28;20445;-72
2020/12/01 02:11:06;;;;;;;20.13;12.98;;;1.90;74.40;;;;;;5049962;28;20034;-72
2020/12/01 02:13:41;;;;;;;20.67;13.73;;;1.80;74.20;;;;;;5027464;22;20103;-73
2020/12/01 02:16:06;;;;;;;21.40;13.68;;;1.80;74.00;;;;;;5013131;28;20136;-72
2020/12/01 02:18:36;;;;;;;21.42;13.85;;;1.80;74.30;;;;;;5000943;28;20026;-73
2020/12/01 02:21:29;;;;;;;23.58;14.45;;;1.80;74.40;;;;;;5012816;28;20042;-74
2020/12/01 02:23:57;;;;;;;24.70;14.27;;;1.80;74.30;;;;;;5007564;28;20022;-74
2020/12/01 02:26:23;;;;;;;20.45;13.48;;;1.80;74.60;;;;;;5012707;28;20116;-74
2020/12/01 02:28:49;;;;;;;22.13;13.77;;;1.80;74.50;;;;;;5012519;28;20105;-74
2020/12/01 02:31:14;;;;;;;24.00;14.85;;;1.80;74.30;;;;;;5011349;28;20029;-74
2020/12/01 02:33:41;;;;;;;22.75;15.23;;;1.80;74.10;;;;;;5012675;28;20524;-73
2020/12/01 02:36:06;;;;;;;22.35;14.35;;;1.80;74.40;;;;;;5012570;28;20079;-73
2020/12/01 02:38:32;;;;;;;21.83;14.48;;;1.90;74.60;;;;;;5012687;28;20037;-74
2020/12/01 02:40:58;;;;;;;21.90;15.32;;;1.80;74.90;;;;;;5010861;28;20044;-74
2020/12/01 02:43:23;;;;;;;27.73;15.90;;;1.80;74.40;;;;;;5012369;28;20025;-73
2020/12/01 02:45:49;;;;;;;24.42;15.32;;;1.80;75.00;;;;;;5012654;28;20061;-73
2020/12/01 02:48:15;;;;;;;24.95;14.88;;;1.80;75.20;;;;;;5012410;28;20022;-73
2020/12/01 02:50:40;;;;;;;24.50;15.30;;;1.80;75.60;;;;;;5011017;28;20034;-73
2020/12/01 02:53:06;;;;;;;23.77;15.63;;;1.80;75.90;;;;;;5012214;28;20400;-73
2020/12/01 02:55:32;;;;;;;23.77;15.63;;;1.80;75.80;;;;;;5011043;28;20036;-73
2020/12/01 02:57:57;;;;;;;26.50;16.13;;;1.70;77.00;;;;;;5012054;28;20025;-73
2020/12/01 03:00:23;;;;;;;28.60;18.05;;;1.70;78.40;;;;;;5012227;28;20077;-73
2020/12/01 03:02:48;;;;;;;26.65;17.23;;;1.50;79.60;;;;;;5012250;28;20072;-73
2020/12/01 03:05:14;;;;;;;29.17;17.88;;;1.50;80.70;;;;;;5012138;28;20029;-73
2020/12/01 03:07:40;;;;;;;29.38;17.60;;;1.40;81.30;;;;;;5012111;28;20084;-73
2020/12/01 03:10:06;;;;;;;31.60;17.67;;;1.30;81.70;;;;;;5002170;28;20030;-73
2020/12/01 03:12:32;;;;;;;31.98;19.27;;;1.30;82.50;;;;;;5011678;28;20045;-73
2020/12/01 03:15:00;;;;;;;30.35;18.73;;;1.20;82.70;;;;;;5010603;28;20403;-74
2020/12/01 03:17:25;;;;;;;32.80;18.75;;;1.20;83.70;;;;;;5011957;28;20037;-73
2020/12/01 03:19:51;;;;;;;29.83;19.25;;;1.20;83.40;;;;;;5011636;28;20034;-73
2020/12/01 03:22:17;;;;;;;34.15;19.60;;;1.10;83.80;;;;;;5011829;28;20034;-73
2020/12/01 03:24:42;;;;;;;32.53;20.25;;;1.10;84.20;;;;;;5010365;28;20117;-73
2020/12/01 03:27:08;;;;;;;35.03;21.38;;;1.10;84.80;;;;;;5011289;28;20144;-74
2020/12/01 03:29:33;;;;;;;40.08;22.98;;;1.00;85.10;;;;;;5011270;28;20109;-74
2020/12/01 03:31:59;;;;;;;38.95;22.67;;;1.00;86.10;;;;;;5011419;28;20041;-73
2020/12/01 03:34:25;;;;;;;38.22;22.30;;;0.90;85.90;;;;;;5011712;28;20022;-73
2020/12/01 03:36:50;;;;;;;39.08;23.88;;;0.90;86.10;;;;;;5011511;28;20036;-72
2020/12/01 03:39:16;;;;;;;47.42;25.17;;;0.80;86.80;;;;;;5011806;28;20061;-72
2020/12/01 03:41:42;;;;;;;45.45;25.95;;;0.80;87.60;;;;;;5011274;28;20042;-72
2020/12/01 03:44:07;;;;;;;43.22;25.50;;;0.80;87.70;;;;;;5011563;28;20160;-73
2020/12/01 03:46:33;;;;;;;45.58;27.45;;;0.80;87.90;;;;;;5011900;28;20036;-72
2020/12/01 03:48:59;;;;;;;46.40;28.90;;;0.70;87.80;;;;;;5011562;28;20030;-73
2020/12/01 03:51:26;;;;;;;50.20;28.88;;;0.60;88.30;;;;;;5011702;28;20037;-73
2020/12/01 03:53:52;;;;;;;51.53;30.48;;;0.50;89.10;;;;;;5011463;28;20445;-73
2020/12/01 03:56:19;;;;;;;50.13;29.88;;;0.40;89.20;;;;;;5011255;28;20030;-73
2020/12/01 03:58:45;;;;;;;52.05;29.13;;;0.40;89.30;;;;;;5011279;28;20053;-74
2020/12/01 04:01:10;;;;;;;50.08;29.35;;;0.40;89.80;;;;;;5011104;28;20489;-73
2020/12/01 04:03:36;;;;;;;50.75;29.95;;;0.50;89.80;;;;;;5009879;28;20027;-72
2020/12/01 04:06:05;;;;;;;49.67;28.80;;;0.50;89.80;;;;;;5011268;28;20073;-73
2020/12/01 04:08:31;;;;;;;51.95;30.35;;;0.40;89.40;;;;;;5011287;28;20516;-73
2020/12/01 04:10:58;;;;;;;52.47;30.15;;;0.40;89.70;;;;;;4994754;28;20110;-73
2020/12/01 04:13:23;;;;;;;51.95;29.48;;;0.50;89.80;;;;;;5011104;28;20078;-74
2020/12/01 04:15:49;;;;;;;50.42;28.88;;;0.50;89.60;;;;;;5011158;28;20061;-74
2020/12/01 04:18:15;;;;;;;47.47;28.02;;;0.40;89.50;;;;;;5009829;28;20030;-74
2020/12/01 04:20:40;;;;;;;45.65;27.75;;;0.50;89.60;;;;;;4993420;28;20052;-74
2020/12/01 04:23:07;;;;;;;49.50;28.50;;;0.50;89.40;;;;;;5011109;28;20029;-72
2020/12/01 04:25:32;;;;;;;50.30;28.15;;;0.50;89.70;;;;;;5009548;28;20041;-73
2020/12/01 04:27:58;;;;;;;49.00;27.42;;;0.50;89.30;;;;;;5009695;28;20034;-73
2020/12/01 04:30:25;;;;;;;47.60;27.45;;;0.60;89.40;;;;;;5010848;28;20026;-73
2020/12/01 04:32:52;;;;;;;46.63;27.48;;;0.70;89.60;;;;;;5010768;28;20038;-73
2020/12/01 04:35:18;;;;;;;46.88;27.65;;;0.60;89.40;;;;;;5011188;28;20083;-73
2020/12/01 04:37:44;;;;;;;46.88;27.77;;;0.60;89.50;;;;;;5010952;28;20030;-73
2020/12/01 04:40:14;;;;;;;47.65;28.73;;;0.60;89.80;;;;;;5010631;28;20038;-74
2020/12/01 04:42:48;;;;;;;45.38;26.77;;;0.60;89.40;;;;;;5012336;28;20022;-74
2020/12/01 04:45:14;;;;;;;43.00;26.98;;;0.60;89.60;;;;;;5013371;28;20030;-74
2020/12/01 04:48:09;;;;;;;47.58;26.23;;;0.60;89.30;;;;;;5014628;28;20176;-74
2020/12/01 04:50:39;;;;;;;43.63;27.13;;;0.70;89.50;;;;;;5012905;28;20504;-74
2020/12/01 04:53:20;;;;;;;44.47;26.30;;;0.70;89.00;;;;;;5013149;28;20022;-74
2020/12/01 04:55:58;;;;;;;43.20;25.33;;;0.70;89.00;;;;;;5014485;28;20068;-74
2020/12/01 04:59:01;;;;;;;41.17;25.40;;;0.60;89.10;;;;;;5013348;28;20072;-74
2020/12/01 05:01:50;;;;;;;42.63;25.67;;;0.70;89.20;;;;;;5000556;28;20038;-73
2020/12/01 05:04:27;;;;;;;43.83;25.88;;;0.80;88.90;;;;;;5013089;28;20080;-73
2020/12/01 05:07:30;;;;;;;41.72;26.42;;;0.80;88.20;;;;;;5014084;28;20030;-74
2020/12/01 05:10:01;;;;;;;40.50;24.00;;;0.80;88.00;;;;;;5005563;28;20080;-74
2020/12/01 05:12:33;;;;;;;;;;;0.80;88.50;;;;;;5014690;28;20066;-74
2020/12/01 05:15:11;;;;;;;40.95;24.30;;;0.80;88.70;;;;;;5014024;28;19912;-73
2020/12/01 05:17:45;;;;;;;45.28;26.65;;;0.80;88.20;;;;;;5013805;28;20062;-74
2020/12/01 05:20:11;;;;;;;44.47;26.23;;;0.80;88.40;;;;;;5014083;28;20030;-74
2020/12/01 05:22:38;;;;;;;43.42;26.23;;;0.80;88.10;;;;;;5013919;28;20026;-74
2020/12/01 05:25:04;;;;;;;39.45;23.45;;;0.90;88.00;;;;;;5013920;28;20022;-74
2020/12/01 05:27:30;;;;;;;42.25;24.58;;;0.90;87.40;;;;;;5013715;28;20022;-74
2020/12/01 05:30:06;;;;;;;42.33;24.13;;;0.80;87.20;;;;;;5014201;28;20048;-73
2020/12/01 05:32:38;;;;;;;40.60;23.52;;;0.80;87.30;;;;;;5013881;28;20018;-74
2020/12/01 05:35:21;;;;;;;42.95;25.20;;;0.90;87.00;;;;;;5013586;28;20022;-73
2020/12/01 05:37:51;;;;;;;40.75;24.38;;;0.90;87.60;;;;;;5013677;28;20021;-74
2020/12/01 05:40:17;;;;;;;41.38;23.92;;;0.90;87.10;;;;;;5019503;28;20026;-72
2020/12/01 05:42:44;;;;;;;43.95;25.05;;;0.90;86.80;;;;;;5013421;28;20041;-73
2020/12/01 05:45:38;;;;;;;42.97;25.45;;;0.80;87.10;;;;;;4997341;28;20033;-72
2020/12/01 05:48:28;;;;;;;42.45;25.10;;;0.80;86.90;;;;;;5011543;28;20034;-74
2020/12/01 05:51:15;;;;;;;48.10;26.02;;;0.80;87.00;;;;;;5011739;28;20548;-74
2020/12/01 05:53:41;;;;;;;44.22;25.73;;;0.80;87.40;;;;;;5011490;28;20752;-74
2020/12/01 05:56:18;;;;;;;48.65;27.02;;;0.80;86.80;;;;;;5011859;28;20080;-73
2020/12/01 05:58:58;;;;;;;42.97;25.40;;;0.70;87.10;;;;;;5013102;28;20334;-73
2020/12/01 06:01:25;;;;;;;40.67;24.40;;;0.80;87.20;;;;;;4998768;28;20034;-72
2020/12/01 06:04:26;;;;;;;45.25;27.10;;;0.80;87.40;;;;;;5013166;28;20038;-72
2020/12/01 06:07:05;;;;;;;32.22;19.38;;;0.80;88.00;;;;;;5011626;28;20026;-73
2020/12/01 06:09:37;;;;;;;45.50;25.92;;;0.80;87.40;;;;;;5002731;28;20084;-73
2020/12/01 06:12:16;;;;;;;45.28;26.75;;;0.80;87.70;;;;;;5012652;28;20032;-73
2020/12/01 06:14:53;;;;;;;42.33;25.52;;;0.80;87.60;;;;;;5012431;28;20162;-72
2020/12/01 06:17:40;;;;;;;39.47;24.40;;;0.80;87.60;;;;;;4997936;28;20026;-73
2020/12/01 06:20:21;;;;;;;49.63;26.38;;;0.80;87.40;;;;;;5013071;28;20084;-72
2020/12/01 06:23:14;;;;;;;43.10;25.92;;;0.80;87.60;;;;;;5013458;28;20076;-73
2020/12/01 06:25:48;;;;;;;46.63;26.55;;;0.80;87.70;;;;;;5011951;28;20022;-73
2020/12/01 06:28:19;;;;;;;48.58;26.95;;;0.80;87.70;;;;;;5013033;28;20048;-74
2020/12/01 06:31:04;;;;;;;45.25;26.48;;;0.80;87.80;;;;;;5013089;28;20022;-73
2020/12/01 06:33:39;;;;;;;46.75;27.05;;;0.80;88.10;;;;;;4997599;28;20038;-73
2020/12/01 06:36:42;;;;;;;45.55;26.98;;;0.80;88.20;;;;;;5012158;28;20018;-73
2020/12/01 06:39:17;;;;;;;49.20;26.45;;;0.80;88.10;;;;;;5010535;28;20385;-74
2020/12/01 06:41:54;;;;;;;43.88;24.63;;;0.90;88.10;;;;;;5011347;28;20046;-73
2020/12/01 06:44:23;;;;;;;40.92;25.55;;;0.90;87.50;;;;;;5010703;28;20033;-72
2020/12/01 06:46:53;;;;;;;42.08;24.73;;;0.90;87.60;;;;;;5012017;28;20083;-73
2020/12/01 06:49:28;;;;;;;46.47;25.85;;;0.90;87.70;;;;;;5009962;28;20177;-74
2020/12/01 06:52:23;;;;;;;46.10;25.27;;;0.90;87.30;;;;;;5004318;28;20141;-74
2020/12/01 06:54:55;;;;;;;43.58;26.83;;;1.00;87.70;;;;;;5008861;28;20038;-73
2020/12/01 06:57:35;;;;;;;44.92;26.33;;;1.00;87.50;;;;;;5011948;28;20041;-75
2020/12/01 07:00:06;;;;;;;47.00;27.38;;;0.90;87.60;;;;;;5011590;28;20026;-75
2020/12/01 07:02:38;;;;;;;46.28;27.70;;;1.00;88.10;;;;;;5010539;28;20548;-75
2020/12/01 07:05:14;;;;;;;44.38;26.67;;;1.00;87.50;;;;;;5010839;28;20022;-74
2020/12/01 07:07:42;;;;;;;44.80;26.10;;;1.00;87.30;;;;;;5011605;28;20038;-75
2020/12/01 07:10:34;;;;;;;45.78;26.92;;;0.90;87.10;;;;;;5003805;28;20026;-77
2020/12/01 07:13:02;;;;;;;;;;;0.90;87.30;;;;;;5008248;28;20038;-75
2020/12/01 07:15:50;;;;;;;45.03;26.48;;;1.00;87.60;;;;;;5006544;28;19932;-74
2020/12/01 07:18:29;;;;;;;48.00;26.65;;;1.00;87.10;;;;;;5009247;28;20025;-74
2020/12/01 07:21:08;;;;;;;45.35;27.20;;;0.90;87.20;;;;;;5011320;28;20506;-73
2020/12/01 07:23:41;;;;;;;48.35;28.05;;;0.90;87.60;;;;;;5007352;28;20026;-74
2020/12/01 07:26:31;;;;;;;46.53;27.25;;;1.00;87.50;;;;;;5006422;28;20029;-74
2020/12/01 07:29:20;;;;;;;49.28;27.77;;;0.90;87.10;;;;;;5006240;28;20022;-74
2020/12/01 07:31:46;;;;;;;50.38;26.55;;;1.00;87.30;;;;;;5008342;28;20496;-74
2020/12/01 07:34:17;;;;;;;47.15;26.70;;;1.00;86.80;;;;;;5011336;28;20026;-72
2020/12/01 07:37:07;;;;;;;50.10;28.33;;;1.00;86.70;;;;;;5010906;28;20605;-74
2020/12/01 07:39:33;;;;;;;48.05;27.92;;;1.10;86.50;;;;;;4998372;28;20030;-72
2020/12/01 07:42:03;;;;;;;46.42;25.25;;;1.00;86.20;;;;;;5011138;28;20037;-72
2020/12/01 07:44:38;;;;;;;34.45;20.67;;;1.00;86.40;;;;;;5011254;28;20393;-72
2020/12/01 07:47:10;;;;;;;45.55;25.55;;;1.10;86.20;;;;;;5010857;28;20087;-81
2020/12/01 07:49:36;;;;;;;42.88;25.85;;;1.10;86.10;;;;;;5009898;28;20121;-84
2020/12/01 07:52:21;;;;;;;45.35;27.50;;;1.10;85.80;;;;;;5010818;28;20153;-80
2020/12/01 07:54:55;;;;;;;46.58;28.88;;;1.10;85.50;;;;;;5009717;28;20022;-81
2020/12/01 07:57:22;;;;;;;45.47;26.50;;;1.10;85.50;;;;;;5010730;28;20029;-82
2020/12/01 07:59:50;;;;;;;49.63;27.92;;;1.10;85.40;;;;;;5019276;28;20111;-82
2020/12/01 08:02:19;;;;;;;48.50;28.23;;;1.10;85.30;;;;;;5010813;28;20025;-80
2020/12/01 08:04:44;;;;;;;48.63;28.42;;;1.00;85.30;;;;;;5010861;28;20033;-77
2020/12/01 08:07:16;;;;;;;43.88;26.08;;;1.10;85.70;;;;;;4994848;28;20033;-81
2020/12/01 08:09:45;;;;;;;47.20;28.48;;;1.10;85.40;;;;;;5011069;28;20022;-80
2020/12/01 08:12:15;;;;;;;47.45;27.58;;;1.20;84.80;;;;;;4998183;28;20109;-81
2020/12/01 08:14:51;;;;;;;45.60;27.38;;;1.20;84.60;;;;;;5002976;28;20093;-82
2020/12/01 08:17:25;;;;;;;47.63;27.17;;;1.20;84.70;;;;;;4998576;28;20022;-80
2020/12/01 08:19:54;;;;;;;46.55;27.40;;;1.30;84.20;;;;;;5014910;28;20389;-81
2020/12/01 08:22:27;;;;;;;45.40;26.58;;;1.40;83.90;;;;;;5014170;28;20112;-80
2020/12/01 08:24:58;;;;;;;47.75;27.10;;;1.50;83.20;;;;;;5014667;28;20089;-79
2020/12/01 08:27:26;;;;;;;;;;;1.60;83.00;;;;;;5028257;28;20056;-78
2020/12/01 08:29:54;;;;;;;42.47;25.20;;;1.60;82.10;;;;;;5014780;28;19910;-78
2020/12/01 08:32:40;;;;;;;48.15;25.55;;;1.60;81.80;;;;;;5013387;28;20065;-78
2020/12/01 08:35:26;;;;;;;45.80;27.05;;;1.60;81.10;;;;;;5014524;28;20049;-79
2020/12/01 08:38:39;;;;;;;47.88;24.55;;;1.70;81.70;;;;;;5013020;28;20064;-77
2020/12/01 08:41:31;;;;;;;45.45;25.13;;;1.80;80.60;;;;;;5001355;28;20133;-79
2020/12/01 08:44:02;;;;;;;;;;;1.90;80.60;;;;;;5013553;28;20033;-79
2020/12/01 08:46:30;;;;;;;43.53;25.70;;;1.90;80.00;;;;;;5013017;28;19909;-79
2020/12/01 08:49:23;;;;;;;43.47;24.85;;;2.00;79.80;;;;;;5013016;28;20491;-77
2020/12/01 08:51:48;;;;;;;40.42;23.67;;;2.00;79.50;;;;;;5013124;28;20437;-77
2020/12/01 08:54:17;;;;;;;39.63;24.38;;;2.00;79.00;;;;;;5012795;28;20054;-78
2020/12/01 08:56:46;;;;;;;37.95;24.95;;;2.10;78.70;;;;;;5014212;28;20104;-79
2020/12/01 08:59:18;;;;;;;40.40;24.15;;;2.20;79.00;;;;;;4998151;28;20029;-76
2020/12/01 09:01:44;;;;;;;39.67;24.63;;;2.30;78.40;;;;;;5014095;28;20034;-77
2020/12/01 09:04:24;;;;;;;39.92;25.20;;;2.40;77.60;;;;;;5014527;28;20042;-79
2020/12/01 09:06:52;;;;;;;35.05;22.73;;;2.60;77.70;;;;;;5014014;28;20040;-79
2020/12/01 09:09:24;;;;;;;39.08;22.92;;;2.80;77.00;;;;;;5008051;28;20026;-75
2020/12/01 09:17:23;;;;;;;35.50;22.33;;;3.10;74.70;;;;;;5013746;28;20025;-79
2020/12/01 09:22:47;;;;;;;35.53;22.45;;;3.30;74.20;;;;;;4990936;28;20099;-77
2020/12/01 09:25:26;;;;;;;48.50;27.33;;;3.20;74.10;;;;;;5009643;28;20026;-77
2020/12/01 09:27:53;;;;;;;37.28;22.83;;;3.10;74.60;;;;;;5012880;28;20029;-74
2020/12/01 09:30:35;;;;;;;35.53;22.27;;;3.10;74.80;;;;;;5013665;28;20084;-87
2020/12/01 09:33:03;;;;;;;37.90;23.15;;;3.00;74.20;;;;;;4995714;28;20018;-85
2020/12/01 09:35:29;;;;;;;37.67;24.10;;;3.00;75.40;;;;;;5013505;28;20026;-83
2020/12/01 09:37:55;;;;;;;41.85;25.35;;;3.00;75.20;;;;;;5013310;28;20022;-85
2020/12/01 09:40:21;;;;;;;38.20;23.85;;;3.00;75.90;;;;;;5013645;28;20044;-84
2020/12/01 09:42:51;;;;;;;40.72;23.95;;;3.00;76.00;;;;;;5013479;28;20033;-81
2020/12/01 09:47:55;;;;;;;43.65;24.90;;;3.00;76.60;;;;;;5014481;28;20057;-80
2020/12/01 09:50:31;;;;;;;39.58;24.20;;;2.80;75.90;;;;;;5014408;28;20056;-79
2020/12/01 10:08:37;;;;;;;41.90;25.48;;;3.10;74.60;;;;;;5013980;28;20103;-76
2020/12/01 10:15:26;;;;;;;;;;;3.20;75.30;;;;;;5049850;22;20053;-77
2020/12/01 10:34:44;;;;;;;40.45;24.92;;;2.80;78.20;;;;;;5048440;28;20220;-81
2020/12/01 10:37:10;;;;;;;42.17;25.23;;;2.80;78.60;;;;;;5035289;28;20029;-76
2020/12/01 10:39:36;;;;;;;41.45;25.27;;;2.80;78.20;;;;;;5045949;28;20113;-80
2020/12/01 10:42:10;;;;;;;42.90;24.80;;;2.80;78.50;;;;;;5042448;28;20498;-80
2020/12/01 10:44:35;;;;;;;42.38;27.13;;;2.80;78.50;;;;;;5036305;28;20030;-73
2020/12/01 10:47:01;;;;;;;42.33;25.27;;;2.80;78.20;;;;;;5049423;28;20095;-74
2020/12/01 10:49:30;;;;;;;38.85;23.88;;;2.80;78.10;;;;;;5038467;28;20033;-80
2020/12/01 10:51:56;;;;;;;40.85;25.10;;;3.00;77.40;;;;;;5042806;28;20088;-79
2020/12/01 10:54:21;;;;;;;38.47;23.88;;;2.90;77.10;;;;;;5044713;28;20017;-80
2020/12/01 10:56:49;;;;;;;39.47;24.00;;;2.90;77.10;;;;;;5035789;28;20022;-80
2020/12/01 10:59:16;;;;;;;38.03;24.05;;;2.80;77.30;;;;;;5048124;28;20030;-79
2020/12/01 11:01:41;;;;;;;40.05;23.23;;;2.70;77.60;;;;;;5040172;28;20115;-80
2020/12/01 11:04:08;;;;;;;39.55;24.45;;;2.70;77.60;;;;;;5039514;28;20128;-80
2020/12/01 11:06:36;;;;;;;38.80;24.10;;;2.80;77.70;;;;;;5046083;28;20028;-79
2020/12/01 11:09:03;;;;;;;43.42;26.20;;;2.90;77.50;;;;;;5023279;28;20026;-78
2020/12/01 11:11:28;;;;;;;41.95;25.20;;;3.00;77.50;;;;;;5038517;28;20032;-78
2020/12/01 11:13:54;;;;;;;42.28;24.30;;;3.00;77.20;;;;;;5042420;28;20045;-80
2020/12/01 11:16:20;;;;;;;36.42;23.48;;;3.00;76.80;;;;;;5045469;28;20021;-81
2020/12/01 11:18:45;;;;;;;41.03;24.05;;;3.00;77.00;;;;;;5035326;28;20472;-81
2020/12/01 11:21:11;;;;;;;37.10;23.90;;;3.10;76.50;;;;;;5047187;28;20168;-80
2020/12/01 11:23:37;;;;;;;36.22;23.50;;;3.20;76.10;;;;;;5039318;28;20025;-82
2020/12/01 11:26:03;;;;;;;36.15;22.30;;;3.30;76.20;;;;;;5041023;28;20029;-82
2020/12/01 11:28:28;;;;;;;35.70;23.27;;;3.40;75.30;;;;;;5046273;28;20025;-83
2020/12/01 11:30:54;;;;;;;34.15;21.45;;;3.40;74.90;;;;;;5035249;28;20036;-81
2020/12/01 11:33:20;;;;;;;34.35;21.98;;;3.40;74.30;;;;;;5047138;28;20083;-74
2020/12/01 11:35:45;;;;;;;39.78;22.42;;;3.50;74.50;;;;;;5039998;28;20498;-80
2020/12/01 11:38:11;;;;;;;36.83;21.70;;;3.50;73.80;;;;;;5039914;28;20022;-79
2020/12/01 11:40:37;;;;;;;33.90;21.95;;;3.60;73.30;;;;;;5047042;28;20033;-79
2020/12/01 11:43:02;;;;;;;34.58;21.27;;;3.70;73.50;;;;;;5035315;28;20108;-79
2020/12/01 11:45:28;;;;;;;36.20;22.08;;;3.80;72.70;;;;;;5044673;28;20033;-77
2020/12/01 11:47:54;;;;;;;34.67;21.13;;;3.80;72.20;;;;;;5041262;28;20143;-77
2020/12/01 11:50:20;;;;;;;37.40;22.63;;;3.80;71.80;;;;;;5038743;28;20108;-78
2020/12/01 11:52:46;;;;;;;36.90;22.20;;;3.70;72.40;;;;;;5049285;28;20032;-77
2020/12/01 11:55:12;;;;;;;35.67;21.15;;;3.70;72.40;;;;;;5035540;28;20024;-77
2020/12/01 11:57:37;;;;;;;33.38;20.02;;;3.60;72.70;;;;;;5045949;28;20029;-78
2020/12/01 12:00:06;;;;;;;36.60;22.50;;;3.70;72.60;;;;;;5043027;28;20017;-78
2020/12/01 12:02:33;;;;;;;38.72;23.38;;;3.80;72.80;;;;;;5036789;28;20053;-83
2020/12/01 12:04:59;;;;;;;37.97;22.55;;;3.90;72.60;;;;;;5048156;28;20109;-76
2020/12/01 12:07:24;;;;;;;35.03;21.58;;;3.90;72.00;;;;;;5035737;28;20024;-78
2020/12/01 12:09:50;;;;;;;34.85;22.02;;;3.90;71.70;;;;;;5041218;28;20032;-79
2020/12/01 12:12:16;;;;;;;35.47;21.77;;;3.90;71.50;;;;;;5037412;28;20523;-79
2020/12/01 12:14:42;;;;;;;38.38;22.35;;;3.70;72.20;;;;;;5046445;28;20033;-79
2020/12/01 12:17:08;;;;;;;36.53;22.30;;;3.60;72.70;;;;;;5035011;28;20151;-75
2020/12/01 12:19:34;;;;;;;42.15;24.60;;;3.60;72.50;;;;;;5045888;28;20410;-80
2020/12/01 12:21:59;;;;;;;35.60;21.13;;;3.50;72.40;;;;;;5040415;28;20048;-78
2020/12/01 12:24:25;;;;;;;36.45;22.35;;;3.50;73.20;;;;;;5045142;28;20063;-82
2020/12/01 12:26:50;;;;;;;36.10;21.35;;;3.50;72.40;;;;;;5033298;28;20477;-81
2020/12/01 12:29:16;;;;;;;36.58;21.02;;;3.60;72.40;;;;;;5045508;28;20562;-76
2020/12/01 12:31:42;;;;;;;36.72;21.85;;;3.60;72.80;;;;;;5037854;28;20091;-83
2020/12/01 12:34:07;;;;;;;34.05;21.33;;;3.60;72.80;;;;;;5037441;28;20488;-77
2020/12/01 12:36:33;;;;;;;35.75;20.92;;;3.60;72.40;;;;;;5045470;28;20359;-82
2020/12/01 12:38:59;;;;;;;31.67;20.25;;;3.50;72.50;;;;;;5032817;28;20071;-83
2020/12/01 12:41:25;;;;;;;34.58;20.70;;;3.30;73.20;;;;;;5044762;28;20399;-80
2020/12/01 12:43:51;;;;;;;38.10;23.02;;;3.40;73.40;;;;;;5040882;28;20033;-80
2020/12/01 12:46:17;;;;;;;33.72;20.73;;;3.40;74.30;;;;;;5038941;28;20021;-81
2020/12/01 12:48:43;;;;;;;35.03;20.35;;;3.40;73.20;;;;;;5014767;28;20380;-78
2020/12/01 12:51:08;;;;;;;33.03;19.85;;;3.40;73.80;;;;;;5014543;28;20068;-82
2020/12/01 12:53:34;;;;;;;31.50;20.30;;;3.30;74.10;;;;;;5030657;28;20029;-83
2020/12/01 12:56:00;;;;;;;34.75;19.73;;;3.30;73.90;;;;;;5030569;28;20563;-81
2020/12/01 12:58:26;;;;;;;38.72;21.17;;;3.30;74.70;;;;;;5030519;28;20057;-80
2020/12/01 13:00:52;;;;;;;33.13;19.83;;;3.30;74.50;;;;;;5030352;28;20484;-77
2020/12/01 13:03:18;;;;;;;31.85;19.77;;;3.40;74.30;;;;;;5031192;28;20029;-80
2020/12/01 13:05:43;;;;;;;32.92;19.65;;;3.40;74.00;;;;;;5034307;28;20107;-80
2020/12/01 13:08:09;;;;;;;34.92;18.90;;;3.20;74.60;;;;;;5031278;28;20022;-82
2020/12/01 13:10:35;;;;;;;31.90;20.23;;;3.30;75.10;;;;;;5014274;28;20030;-80
2020/12/01 13:13:02;;;;;;;37.80;20.20;;;3.30;75.20;;;;;;5015555;28;20305;-79
2020/12/01 13:15:27;;;;;;;34.08;20.40;;;3.30;75.10;;;;;;5015458;28;20104;-78
2020/12/01 13:17:53;;;;;;;34.38;20.92;;;3.20;75.30;;;;;;5015468;28;20196;-81
2020/12/01 13:20:37;;;;;;;32.20;19.95;;;3.20;75.70;;;;;;5031725;28;20384;-80
2020/12/01 13:23:19;;;;;;;33.78;21.00;;;3.20;75.90;;;;;;5034615;28;20025;-77
2020/12/01 13:25:45;;;;;;;35.08;21.30;;;3.20;75.70;;;;;;5035412;28;20384;-80
2020/12/01 13:28:11;;;;;;;35.53;20.17;;;3.00;75.90;;;;;;5035228;28;20461;-80
2020/12/01 13:30:36;;;;;;;36.17;21.10;;;3.00;76.40;;;;;;5017414;28;20044;-75
2020/12/01 13:33:02;;;;;;;34.65;21.88;;;3.10;75.90;;;;;;5033979;28;20029;-75
2020/12/01 13:35:28;;;;;;;35.45;21.85;;;3.00;76.30;;;;;;5034810;28;20040;-74
2020/12/01 13:37:54;;;;;;;32.83;21.05;;;3.00;76.40;;;;;;5034806;28;20025;-77
2020/12/01 13:40:23;;;;;;;35.70;21.75;;;3.10;76.50;;;;;;5033110;28;20032;-78